createdAt,value
2023-05-22T00:01:49.984Z,62.74
2023-05-22T00:06:53.694Z,62.56
2023-05-22T00:11:55.394Z,62.68
2023-05-22T00:16:59.321Z,62.75
2023-05-22T00:22:04.018Z,63.06
2023-05-22T00:27:05.833Z,62.91
2023-05-22T00:32:07.835Z,63.18
2023-05-22T00:37:09.488Z,62.94
2023-05-22T00:42:11.694Z,63.31
2023-05-22T00:47:13.707Z,63.28
2023-05-22T00:52:15.855Z,63.50
2023-05-22T00:57:17.844Z,63.31
2023-05-22T01:02:19.896Z,63.30
2023-05-22T01:07:21.567Z,63.43
2023-05-22T01:12:34.603Z,63.42
2023-05-22T01:17:40.150Z,63.27
2023-05-22T01:22:52.074Z,62.91
2023-05-22T01:27:59.888Z,63.14
2023-05-22T01:33:01.841Z,63.14
2023-05-22T01:38:03.749Z,63.21
2023-05-22T01:43:05.745Z,63.20
2023-05-22T01:48:07.469Z,63.10
2023-05-22T01:53:15.938Z,63.00
2023-05-22T01:58:36.249Z,63.16
2023-05-22T02:03:38.140Z,63.13
2023-05-22T02:08:41.341Z,63.54
2023-05-22T02:13:42.957Z,63.45
2023-05-22T02:18:45.053Z,63.58
2023-05-22T02:23:46.794Z,63.44
2023-05-22T02:28:48.650Z,63.55
2023-05-22T02:33:50.563Z,63.60
2023-05-22T02:38:52.441Z,63.63
2023-05-22T02:43:54.301Z,63.74
2023-05-22T02:48:55.998Z,63.97
2023-05-22T02:53:57.872Z,64.03
2023-05-22T02:58:59.822Z,64.17
2023-05-22T03:04:03.112Z,64.10
2023-05-22T03:09:05.113Z,64.05
2023-05-22T03:14:06.991Z,64.05
2023-05-22T03:19:12.899Z,64.12
2023-05-22T03:24:15.043Z,64.06
2023-05-22T03:29:17.002Z,64.08
2023-05-22T03:34:18.802Z,63.95
2023-05-22T03:39:22.276Z,63.88
2023-05-22T03:44:24.473Z,63.77
2023-05-22T03:49:26.129Z,63.61
2023-05-22T03:54:27.877Z,63.51
2023-05-22T03:59:29.734Z,63.33
2023-05-22T04:04:35.134Z,63.30
2023-05-22T04:09:37.986Z,63.14
2023-05-22T04:14:39.766Z,63.11
2023-05-22T04:19:41.629Z,62.97
2023-05-22T04:24:43.422Z,62.93
2023-05-22T04:29:48.614Z,62.94
2023-05-22T04:34:50.683Z,62.65
2023-05-22T04:39:52.537Z,62.17
2023-05-22T04:44:54.207Z,61.89
2023-05-22T04:49:56.087Z,61.50
2023-05-22T04:54:59.948Z,61.19
2023-05-22T05:00:03.849Z,60.64
2023-05-22T05:05:05.726Z,60.57
2023-05-22T05:10:08.239Z,59.94
2023-05-22T05:15:10.165Z,59.42
2023-05-22T05:20:12.180Z,58.73
2023-05-22T05:25:14.972Z,57.97
2023-05-22T05:30:18.299Z,57.26
2023-05-22T05:35:22.209Z,57.27
2023-05-22T05:40:24.695Z,55.52
2023-05-22T05:45:26.575Z,54.39
2023-05-22T05:50:28.462Z,53.24
2023-05-22T05:55:30.797Z,52.70
2023-05-22T06:00:33.553Z,52.37
2023-05-22T06:05:35.310Z,52.20
2023-05-22T06:10:37.448Z,51.96
2023-05-22T06:15:39.515Z,50.76
2023-05-22T06:20:41.580Z,51.14
2023-05-22T06:25:45.614Z,50.69
2023-05-22T06:30:47.811Z,47.90
2023-05-22T06:35:49.796Z,47.98
2023-05-22T06:40:51.462Z,47.98
2023-05-22T06:45:55.031Z,48.78
2023-05-22T06:50:56.941Z,47.82
2023-05-22T06:55:58.638Z,47.67
2023-05-22T07:01:00.440Z,47.22
2023-05-22T07:06:02.263Z,46.47
2023-05-22T07:11:04.358Z,46.56
2023-05-22T07:16:06.402Z,46.02
2023-05-22T07:21:08.340Z,46.35
2023-05-22T07:26:10.200Z,46.65
2023-05-22T07:31:12.033Z,45.91
2023-05-22T07:36:13.752Z,45.18
2023-05-22T07:41:15.524Z,44.08
2023-05-22T07:46:17.403Z,43.62
2023-05-22T07:51:19.190Z,43.68
2023-05-22T07:56:21.049Z,43.47
2023-05-22T08:01:23.129Z,43.42
2023-05-22T08:06:24.868Z,42.40
2023-05-22T08:11:26.795Z,41.77
2023-05-22T08:16:31.647Z,41.61
2023-05-22T08:21:34.840Z,40.95
2023-05-22T08:26:36.945Z,41.47
2023-05-22T08:31:38.942Z,41.81
2023-05-22T08:36:40.784Z,40.78
2023-05-22T08:41:42.656Z,41.17
2023-05-22T08:46:44.461Z,40.79
2023-05-22T08:51:48.256Z,39.62
2023-05-22T08:56:56.776Z,39.34
2023-05-22T09:01:59.211Z,39.71
2023-05-22T09:07:00.859Z,39.64
2023-05-22T09:12:02.616Z,39.89
2023-05-22T09:17:04.623Z,38.56
2023-05-22T09:22:06.395Z,38.12
2023-05-22T09:27:08.274Z,37.00
2023-05-22T09:32:13.785Z,36.00
2023-05-22T09:37:18.600Z,35.99
2023-05-22T09:42:20.486Z,35.39
2023-05-22T09:47:24.412Z,34.60
2023-05-22T09:52:28.483Z,32.33
2023-05-22T09:57:32.241Z,31.09
2023-05-22T10:02:34.492Z,31.52
2023-05-22T10:07:37.062Z,31.76
2023-05-22T10:12:44.662Z,30.73
2023-05-22T10:17:46.561Z,29.85
2023-05-22T10:22:48.500Z,29.76
2023-05-22T10:27:52.940Z,28.84
2023-05-22T10:33:03.965Z,28.06
2023-05-22T10:38:24.439Z,28.19
2023-05-22T10:43:29.894Z,27.57
2023-05-22T10:48:43.821Z,26.70
2023-05-22T10:53:59.905Z,26.64
2023-05-22T10:59:02.871Z,26.50
2023-05-22T11:04:04.562Z,26.47
2023-05-22T11:09:21.625Z,26.26
2023-05-22T11:14:23.669Z,26.23
2023-05-22T11:19:25.668Z,25.26
2023-05-22T11:24:32.129Z,24.88
2023-05-22T11:29:34.208Z,25.78
2023-05-22T11:34:39.386Z,25.32
2023-05-22T11:39:41.264Z,26.25
2023-05-22T11:44:43.032Z,25.85
2023-05-22T11:49:44.661Z,25.49
2023-05-22T11:54:46.978Z,25.17
2023-05-22T11:59:48.970Z,24.83
2023-05-22T12:04:57.433Z,23.73
2023-05-22T12:09:59.525Z,22.46
2023-05-22T12:15:01.272Z,23.02
2023-05-22T12:20:03.853Z,22.02
2023-05-22T12:25:13.792Z,21.17
2023-05-22T12:30:16.396Z,18.85
2023-05-22T12:35:18.470Z,20.13
2023-05-22T12:40:20.323Z,20.37
2023-05-22T12:45:22.257Z,20.59
2023-05-22T12:50:24.236Z,21.30
2023-05-22T12:55:26.120Z,23.18
2023-05-22T13:00:28.020Z,23.64
2023-05-22T13:05:29.969Z,24.79
2023-05-22T13:10:31.958Z,25.44
2023-05-22T13:15:33.950Z,26.17
2023-05-22T13:20:35.910Z,26.77
2023-05-22T13:25:37.839Z,26.37
2023-05-22T13:30:40.258Z,27.07
2023-05-22T13:35:42.745Z,27.81
2023-05-22T13:40:48.334Z,27.98
2023-05-22T13:45:50.628Z,27.69
2023-05-22T13:50:52.523Z,28.37
2023-05-22T13:55:54.392Z,28.43
2023-05-22T14:00:56.290Z,28.92
2023-05-22T14:06:00.148Z,29.01
2023-05-22T14:11:01.816Z,28.76
2023-05-22T14:16:03.606Z,28.62
2023-05-22T14:21:05.646Z,28.86
2023-05-22T14:26:07.703Z,29.23
2023-05-22T14:31:09.609Z,29.35
2023-05-22T14:36:11.568Z,29.38
2023-05-22T14:41:13.567Z,29.46
2023-05-22T14:46:15.440Z,30.02
2023-05-22T14:51:21.091Z,29.76
2023-05-22T14:56:22.805Z,29.88
2023-05-22T15:01:24.703Z,29.77
2023-05-22T15:06:26.579Z,29.75
2023-05-22T15:11:28.613Z,29.65
2023-05-22T15:16:30.619Z,29.77
2023-05-22T15:21:33.904Z,30.22
2023-05-22T15:26:35.736Z,30.13
2023-05-22T15:31:37.737Z,30.24
2023-05-22T15:36:39.670Z,29.49
2023-05-22T15:41:44.693Z,29.60
2023-05-22T15:46:50.799Z,29.09
2023-05-22T15:51:52.850Z,29.80
2023-05-22T15:56:54.568Z,30.06
2023-05-22T16:01:56.405Z,30.39
2023-05-22T16:06:58.215Z,30.26
2023-05-22T16:12:00.233Z,30.85
2023-05-22T16:17:01.944Z,31.14
2023-05-22T16:22:04.021Z,30.98
2023-05-22T16:27:06.043Z,31.25
2023-05-22T16:32:07.830Z,31.51
2023-05-22T16:37:09.488Z,31.63
2023-05-22T16:42:11.430Z,32.07
2023-05-22T16:47:13.311Z,32.11
2023-05-22T16:52:15.393Z,32.33
2023-05-22T16:57:17.134Z,32.70
2023-05-22T17:02:19.048Z,32.99
2023-05-22T17:07:20.770Z,33.18
2023-05-22T17:12:22.451Z,33.56
2023-05-22T17:17:24.396Z,33.53
2023-05-22T17:22:26.454Z,33.70
2023-05-22T17:27:36.225Z,33.77
2023-05-22T17:32:38.582Z,33.85
2023-05-22T17:37:40.617Z,34.18
2023-05-22T17:42:42.580Z,34.00
2023-05-22T17:47:44.804Z,34.18
2023-05-22T17:52:46.853Z,34.25
2023-05-22T17:57:48.717Z,34.49
2023-05-22T18:02:50.637Z,34.59
2023-05-22T18:07:52.688Z,34.77
2023-05-22T18:12:54.655Z,35.20
2023-05-22T18:17:56.517Z,35.47
2023-05-22T18:22:58.663Z,35.85
2023-05-22T18:28:00.499Z,35.82
2023-05-22T18:33:02.229Z,35.90
2023-05-22T18:38:04.145Z,36.04
2023-05-22T18:43:05.977Z,36.27
2023-05-22T18:48:07.960Z,36.50
2023-05-22T18:53:10.164Z,36.76
2023-05-22T18:58:12.175Z,37.11
2023-05-22T19:03:14.314Z,37.69
2023-05-22T19:08:16.442Z,37.90
2023-05-22T19:13:20.931Z,38.38
2023-05-22T19:18:23.993Z,38.98
2023-05-22T19:23:26.083Z,39.20
2023-05-22T19:28:28.593Z,39.94
2023-05-22T19:33:30.392Z,40.44
2023-05-22T19:38:32.378Z,40.95
2023-05-22T19:43:34.174Z,41.29
2023-05-22T19:48:35.908Z,41.61
2023-05-22T19:53:37.851Z,42.35
2023-05-22T19:58:39.942Z,42.84
2023-05-22T20:03:42.837Z,43.40
2023-05-22T20:08:46.199Z,43.77
2023-05-22T20:13:48.129Z,44.11
2023-05-22T20:18:50.035Z,44.41
2023-05-22T20:23:55.303Z,44.74
2023-05-22T20:28:56.999Z,45.02
2023-05-22T20:33:58.846Z,45.22
2023-05-22T20:39:00.802Z,45.45
2023-05-22T20:44:02.430Z,45.85
2023-05-22T20:49:04.273Z,46.19
2023-05-22T20:54:06.154Z,46.50
2023-05-22T20:59:08.165Z,46.85
2023-05-22T21:04:10.899Z,46.93
2023-05-22T21:09:12.590Z,47.45
2023-05-22T21:14:14.571Z,47.69
2023-05-22T21:19:16.497Z,47.94
2023-05-22T21:24:18.525Z,48.24
2023-05-22T21:29:20.308Z,48.53
2023-05-22T21:34:21.990Z,48.76
2023-05-22T21:39:23.867Z,49.17
2023-05-22T21:44:25.836Z,49.43
2023-05-22T21:49:27.477Z,49.66
2023-05-22T21:54:30.102Z,49.87
2023-05-22T21:59:31.831Z,50.12
2023-05-22T22:04:34.883Z,50.38
2023-05-22T22:09:37.076Z,50.49
2023-05-22T22:14:39.368Z,50.91
2023-05-22T22:19:41.116Z,51.22
2023-05-22T22:24:42.700Z,51.46
2023-05-22T22:29:44.499Z,51.73
2023-05-22T22:34:46.434Z,51.85
2023-05-22T22:39:48.248Z,52.07
2023-05-22T22:44:49.919Z,52.19
2023-05-22T22:49:55.275Z,52.22
2023-05-22T22:54:58.486Z,52.38
2023-05-22T23:00:00.358Z,52.57
2023-05-22T23:05:02.244Z,52.80
2023-05-22T23:10:04.623Z,53.01
2023-05-22T23:15:07.220Z,53.15
2023-05-22T23:20:09.512Z,53.29
2023-05-22T23:25:11.414Z,53.57
2023-05-22T23:30:13.277Z,53.88
2023-05-22T23:35:15.148Z,54.26
2023-05-22T23:40:17.052Z,54.55
2023-05-22T23:45:21.151Z,54.82
2023-05-22T23:50:24.818Z,55.00
2023-05-22T23:55:30.891Z,55.02
